sensor_id;sensor_type;location;lat;lon;timestamp;P1;durP1;ratioP1;P2;durP2;ratioP2
58898;SDS011;44680;48.342;7.856;2023-02-28T00:01:02;8.48;;;4.82;;
58898;SDS011;44680;48.342;7.856;2023-02-28T00:03:27;6.95;;;4.70;;
58898;SDS011;44680;48.342;7.856;2023-02-28T00:05:53;7.72;;;5.20;;
58898;SDS011;44680;48.342;7.856;2023-02-28T00:08:18;5.45;;;4.88;;
58898;SDS011;44680;48.342;7.856;2023-02-28T00:10:43;8.48;;;5.68;;
58898;SDS011;44680;48.342;7.856;2023-02-28T00:13:09;9.98;;;5.50;;
58898;SDS011;44680;48.342;7.856;2023-02-28T00:15:34;9.93;;;5.22;;
58898;SDS011;44680;48.342;7.856;2023-02-28T00:17:59;6.60;;;5.13;;
58898;SDS011;44680;48.342;7.856;2023-02-28T00:20:25;7.88;;;5.20;;
58898;SDS011;44680;48.342;7.856;2023-02-28T00:22:51;9.93;;;5.50;;
58898;SDS011;44680;48.342;7.856;2023-02-28T00:25:18;9.60;;;5.65;;
58898;SDS011;44680;48.342;7.856;2023-02-28T00:27:46;9.60;;;5.20;;
58898;SDS011;44680;48.342;7.856;2023-02-28T00:30:12;8.70;;;5.85;;
58898;SDS011;44680;48.342;7.856;2023-02-28T00:32:39;8.30;;;5.88;;
58898;SDS011;44680;48.342;7.856;2023-02-28T00:35:05;12.05;;;5.20;;
58898;SDS011;44680;48.342;7.856;2023-02-28T00:37:31;11.48;;;5.45;;
58898;SDS011;44680;48.342;7.856;2023-02-28T00:39:56;12.13;;;5.47;;
58898;SDS011;44680;48.342;7.856;2023-02-28T00:42:22;15.02;;;5.15;;
58898;SDS011;44680;48.342;7.856;2023-02-28T00:44:47;13.65;;;5.70;;
58898;SDS011;44680;48.342;7.856;2023-02-28T00:47:13;8.35;;;5.28;;
58898;SDS011;44680;48.342;7.856;2023-02-28T00:49:38;7.75;;;5.07;;
58898;SDS011;44680;48.342;7.856;2023-02-28T00:52:04;6.40;;;4.88;;
58898;SDS011;44680;48.342;7.856;2023-02-28T00:54:29;7.10;;;4.85;;
58898;SDS011;44680;48.342;7.856;2023-02-28T00:56:55;6.63;;;4.72;;
58898;SDS011;44680;48.342;7.856;2023-02-28T00:59:20;6.63;;;5.20;;
58898;SDS011;44680;48.342;7.856;2023-02-28T01:01:46;8.00;;;5.05;;
58898;SDS011;44680;48.342;7.856;2023-02-28T01:04:12;8.18;;;4.80;;
58898;SDS011;44680;48.342;7.856;2023-02-28T01:06:38;7.30;;;4.90;;
58898;SDS011;44680;48.342;7.856;2023-02-28T01:09:04;7.00;;;4.32;;
58898;SDS011;44680;48.342;7.856;2023-02-28T01:11:30;8.48;;;5.00;;
58898;SDS011;44680;48.342;7.856;2023-02-28T01:13:55;6.28;;;4.68;;
58898;SDS011;44680;48.342;7.856;2023-02-28T01:16:21;6.15;;;4.82;;
58898;SDS011;44680;48.342;7.856;2023-02-28T01:18:46;8.55;;;4.80;;
58898;SDS011;44680;48.342;7.856;2023-02-28T01:21:13;6.55;;;4.85;;
58898;SDS011;44680;48.342;7.856;2023-02-28T01:23:40;9.23;;;5.07;;
58898;SDS011;44680;48.342;7.856;2023-02-28T01:26:10;5.95;;;4.32;;
58898;SDS011;44680;48.342;7.856;2023-02-28T01:28:37;7.05;;;4.75;;
58898;SDS011;44680;48.342;7.856;2023-02-28T01:31:03;7.63;;;5.00;;
58898;SDS011;44680;48.342;7.856;2023-02-28T01:33:28;10.00;;;5.50;;
58898;SDS011;44680;48.342;7.856;2023-02-28T01:35:58;6.53;;;4.70;;
58898;SDS011;44680;48.342;7.856;2023-02-28T01:38:24;9.48;;;5.18;;
58898;SDS011;44680;48.342;7.856;2023-02-28T01:40:49;6.97;;;5.07;;
58898;SDS011;44680;48.342;7.856;2023-02-28T01:46:09;7.03;;;5.00;;
58898;SDS011;44680;48.342;7.856;2023-02-28T01:48:40;5.53;;;4.35;;
58898;SDS011;44680;48.342;7.856;2023-02-28T01:51:12;6.22;;;4.88;;
58898;SDS011;44680;48.342;7.856;2023-02-28T01:53:42;7.22;;;5.15;;
58898;SDS011;44680;48.342;7.856;2023-02-28T01:56:10;11.45;;;5.10;;
58898;SDS011;44680;48.342;7.856;2023-02-28T01:58:37;6.38;;;5.10;;
58898;SDS011;44680;48.342;7.856;2023-02-28T02:01:02;7.15;;;5.43;;
58898;SDS011;44680;48.342;7.856;2023-02-28T02:03:29;6.80;;;4.95;;
58898;SDS011;44680;48.342;7.856;2023-02-28T02:05:55;7.95;;;5.20;;
58898;SDS011;44680;48.342;7.856;2023-02-28T02:08:24;6.20;;;4.75;;
58898;SDS011;44680;48.342;7.856;2023-02-28T02:10:51;7.65;;;5.13;;
58898;SDS011;44680;48.342;7.856;2023-02-28T02:18:50;8.35;;;5.22;;
58898;SDS011;44680;48.342;7.856;2023-02-28T02:21:24;6.68;;;4.97;;
58898;SDS011;44680;48.342;7.856;2023-02-28T02:30:15;8.77;;;5.25;;
58898;SDS011;44680;48.342;7.856;2023-02-28T02:38:37;5.32;;;4.80;;
58898;SDS011;44680;48.342;7.856;2023-02-28T02:46:45;7.25;;;5.30;;
58898;SDS011;44680;48.342;7.856;2023-02-28T02:49:13;7.70;;;5.35;;
58898;SDS011;44680;48.342;7.856;2023-02-28T02:51:41;7.53;;;5.57;;
58898;SDS011;44680;48.342;7.856;2023-02-28T02:54:20;11.30;;;5.85;;
58898;SDS011;44680;48.342;7.856;2023-02-28T02:56:48;9.10;;;5.18;;
58898;SDS011;44680;48.342;7.856;2023-02-28T02:59:16;8.60;;;5.57;;
58898;SDS011;44680;48.342;7.856;2023-02-28T03:01:46;8.57;;;5.35;;
58898;SDS011;44680;48.342;7.856;2023-02-28T03:04:16;6.43;;;5.03;;
58898;SDS011;44680;48.342;7.856;2023-02-28T03:06:43;8.65;;;5.50;;
58898;SDS011;44680;48.342;7.856;2023-02-28T03:09:08;11.85;;;5.65;;
58898;SDS011;44680;48.342;7.856;2023-02-28T03:11:34;9.50;;;6.13;;
58898;SDS011;44680;48.342;7.856;2023-02-28T03:16:36;12.88;;;6.40;;
58898;SDS011;44680;48.342;7.856;2023-02-28T03:21:47;8.60;;;5.30;;
58898;SDS011;44680;48.342;7.856;2023-02-28T03:26:52;10.27;;;5.70;;
58898;SDS011;44680;48.342;7.856;2023-02-28T03:31:49;10.98;;;5.80;;
58898;SDS011;44680;48.342;7.856;2023-02-28T03:34:39;6.43;;;5.38;;
58898;SDS011;44680;48.342;7.856;2023-02-28T03:37:04;10.52;;;5.85;;
58898;SDS011;44680;48.342;7.856;2023-02-28T03:39:43;8.85;;;5.65;;
58898;SDS011;44680;48.342;7.856;2023-02-28T03:42:15;8.70;;;5.40;;
58898;SDS011;44680;48.342;7.856;2023-02-28T03:47:40;12.15;;;5.72;;
58898;SDS011;44680;48.342;7.856;2023-02-28T03:50:17;9.38;;;6.07;;
58898;SDS011;44680;48.342;7.856;2023-02-28T03:52:47;9.15;;;6.07;;
58898;SDS011;44680;48.342;7.856;2023-02-28T03:55:27;10.60;;;5.50;;
58898;SDS011;44680;48.342;7.856;2023-02-28T03:58:01;9.73;;;5.90;;
58898;SDS011;44680;48.342;7.856;2023-02-28T04:00:37;8.60;;;5.90;;
58898;SDS011;44680;48.342;7.856;2023-02-28T04:03:05;10.02;;;5.55;;
58898;SDS011;44680;48.342;7.856;2023-02-28T04:05:30;10.15;;;6.15;;
58898;SDS011;44680;48.342;7.856;2023-02-28T04:08:14;8.80;;;5.90;;
58898;SDS011;44680;48.342;7.856;2023-02-28T04:10:39;8.63;;;6.15;;
58898;SDS011;44680;48.342;7.856;2023-02-28T04:13:05;9.55;;;5.80;;
58898;SDS011;44680;48.342;7.856;2023-02-28T04:15:31;10.40;;;6.07;;
58898;SDS011;44680;48.342;7.856;2023-02-28T04:17:56;8.68;;;6.20;;
58898;SDS011;44680;48.342;7.856;2023-02-28T04:20:22;7.47;;;5.78;;
58898;SDS011;44680;48.342;7.856;2023-02-28T04:22:47;10.50;;;6.22;;
58898;SDS011;44680;48.342;7.856;2023-02-28T04:25:12;9.95;;;6.25;;
58898;SDS011;44680;48.342;7.856;2023-02-28T04:27:38;9.70;;;6.10;;
58898;SDS011;44680;48.342;7.856;2023-02-28T04:30:03;9.18;;;6.05;;
58898;SDS011;44680;48.342;7.856;2023-02-28T04:32:29;9.38;;;6.38;;
58898;SDS011;44680;48.342;7.856;2023-02-28T04:34:54;7.80;;;5.82;;
58898;SDS011;44680;48.342;7.856;2023-02-28T04:37:19;9.98;;;6.10;;
58898;SDS011;44680;48.342;7.856;2023-02-28T04:39:45;9.20;;;6.47;;
58898;SDS011;44680;48.342;7.856;2023-02-28T04:42:11;12.43;;;6.07;;
58898;SDS011;44680;48.342;7.856;2023-02-28T04:44:37;12.02;;;6.35;;
58898;SDS011;44680;48.342;7.856;2023-02-28T04:47:02;10.07;;;5.95;;
58898;SDS011;44680;48.342;7.856;2023-02-28T04:49:27;9.77;;;6.38;;
58898;SDS011;44680;48.342;7.856;2023-02-28T04:51:53;9.13;;;6.53;;
58898;SDS011;44680;48.342;7.856;2023-02-28T04:54:18;9.65;;;6.78;;
58898;SDS011;44680;48.342;7.856;2023-02-28T04:56:43;12.38;;;6.72;;
58898;SDS011;44680;48.342;7.856;2023-02-28T04:59:09;9.52;;;6.18;;
58898;SDS011;44680;48.342;7.856;2023-02-28T05:01:34;9.05;;;6.20;;
58898;SDS011;44680;48.342;7.856;2023-02-28T05:04:01;11.95;;;6.85;;
58898;SDS011;44680;48.342;7.856;2023-02-28T05:06:28;11.27;;;7.10;;
58898;SDS011;44680;48.342;7.856;2023-02-28T05:08:55;12.10;;;6.55;;
58898;SDS011;44680;48.342;7.856;2023-02-28T05:11:30;9.85;;;6.40;;
58898;SDS011;44680;48.342;7.856;2023-02-28T05:14:00;11.23;;;6.45;;
58898;SDS011;44680;48.342;7.856;2023-02-28T05:16:29;11.50;;;6.88;;
58898;SDS011;44680;48.342;7.856;2023-02-28T05:18:55;9.57;;;6.53;;
58898;SDS011;44680;48.342;7.856;2023-02-28T05:21:25;10.88;;;6.30;;
58898;SDS011;44680;48.342;7.856;2023-02-28T05:23:58;13.10;;;6.47;;
58898;SDS011;44680;48.342;7.856;2023-02-28T05:26:28;9.93;;;6.18;;
58898;SDS011;44680;48.342;7.856;2023-02-28T05:28:54;10.80;;;6.43;;
58898;SDS011;44680;48.342;7.856;2023-02-28T05:31:19;11.77;;;6.75;;
58898;SDS011;44680;48.342;7.856;2023-02-28T05:33:45;11.80;;;6.53;;
58898;SDS011;44680;48.342;7.856;2023-02-28T05:36:11;13.00;;;6.80;;
58898;SDS011;44680;48.342;7.856;2023-02-28T05:38:36;12.43;;;7.70;;
58898;SDS011;44680;48.342;7.856;2023-02-28T05:41:04;10.77;;;7.00;;
58898;SDS011;44680;48.342;7.856;2023-02-28T05:43:31;12.70;;;6.90;;
58898;SDS011;44680;48.342;7.856;2023-02-28T05:45:56;12.88;;;7.32;;
58898;SDS011;44680;48.342;7.856;2023-02-28T05:48:21;13.82;;;7.07;;
58898;SDS011;44680;48.342;7.856;2023-02-28T05:50:46;11.65;;;6.30;;
58898;SDS011;44680;48.342;7.856;2023-02-28T05:53:12;13.50;;;7.57;;
58898;SDS011;44680;48.342;7.856;2023-02-28T05:55:37;12.57;;;6.47;;
58898;SDS011;44680;48.342;7.856;2023-02-28T05:58:03;12.45;;;7.13;;
58898;SDS011;44680;48.342;7.856;2023-02-28T06:00:29;11.40;;;7.03;;
58898;SDS011;44680;48.342;7.856;2023-02-28T06:02:54;10.88;;;7.70;;
58898;SDS011;44680;48.342;7.856;2023-02-28T06:05:23;11.70;;;7.13;;
58898;SDS011;44680;48.342;7.856;2023-02-28T06:07:48;13.18;;;7.15;;
58898;SDS011;44680;48.342;7.856;2023-02-28T06:10:14;13.00;;;7.03;;
58898;SDS011;44680;48.342;7.856;2023-02-28T06:12:39;11.60;;;7.00;;
58898;SDS011;44680;48.342;7.856;2023-02-28T06:15:06;16.13;;;7.57;;
58898;SDS011;44680;48.342;7.856;2023-02-28T06:17:32;11.13;;;7.05;;
58898;SDS011;44680;48.342;7.856;2023-02-28T06:19:57;13.50;;;7.47;;
58898;SDS011;44680;48.342;7.856;2023-02-28T06:22:23;14.30;;;7.35;;
58898;SDS011;44680;48.342;7.856;2023-02-28T06:24:48;13.07;;;7.88;;
58898;SDS011;44680;48.342;7.856;2023-02-28T06:27:13;10.63;;;7.13;;
58898;SDS011;44680;48.342;7.856;2023-02-28T06:29:39;14.38;;;7.72;;
58898;SDS011;44680;48.342;7.856;2023-02-28T06:32:07;13.23;;;7.63;;
58898;SDS011;44680;48.342;7.856;2023-02-28T06:34:32;15.43;;;7.55;;
58898;SDS011;44680;48.342;7.856;2023-02-28T06:36:59;14.05;;;7.47;;
58898;SDS011;44680;48.342;7.856;2023-02-28T06:39:27;15.63;;;8.05;;
58898;SDS011;44680;48.342;7.856;2023-02-28T06:41:52;17.13;;;8.30;;
58898;SDS011;44680;48.342;7.856;2023-02-28T06:44:18;14.52;;;7.70;;
58898;SDS011;44680;48.342;7.856;2023-02-28T06:46:43;11.82;;;7.32;;
58898;SDS011;44680;48.342;7.856;2023-02-28T06:49:10;13.57;;;7.43;;
58898;SDS011;44680;48.342;7.856;2023-02-28T06:51:36;13.10;;;7.45;;
58898;SDS011;44680;48.342;7.856;2023-02-28T06:54:04;15.13;;;8.25;;
58898;SDS011;44680;48.342;7.856;2023-02-28T06:56:30;13.77;;;8.02;;
58898;SDS011;44680;48.342;7.856;2023-02-28T06:58:55;12.43;;;7.57;;
58898;SDS011;44680;48.342;7.856;2023-02-28T07:01:21;14.18;;;8.30;;
58898;SDS011;44680;48.342;7.856;2023-02-28T07:03:48;14.43;;;8.18;;
58898;SDS011;44680;48.342;7.856;2023-02-28T07:06:17;15.85;;;8.52;;
58898;SDS011;44680;48.342;7.856;2023-02-28T07:08:47;15.68;;;8.32;;
58898;SDS011;44680;48.342;7.856;2023-02-28T07:11:13;14.82;;;7.50;;
58898;SDS011;44680;48.342;7.856;2023-02-28T07:13:38;15.57;;;8.20;;
58898;SDS011;44680;48.342;7.856;2023-02-28T07:16:05;13.82;;;7.57;;
58898;SDS011;44680;48.342;7.856;2023-02-28T07:18:32;14.38;;;8.32;;
58898;SDS011;44680;48.342;7.856;2023-02-28T07:21:01;15.95;;;8.52;;
58898;SDS011;44680;48.342;7.856;2023-02-28T07:23:26;16.25;;;8.30;;
58898;SDS011;44680;48.342;7.856;2023-02-28T07:25:52;15.35;;;8.38;;
58898;SDS011;44680;48.342;7.856;2023-02-28T07:28:17;14.88;;;8.48;;
58898;SDS011;44680;48.342;7.856;2023-02-28T07:30:43;12.98;;;7.80;;
58898;SDS011;44680;48.342;7.856;2023-02-28T07:33:08;14.75;;;8.07;;
58898;SDS011;44680;48.342;7.856;2023-02-28T07:35:33;15.15;;;8.68;;
58898;SDS011;44680;48.342;7.856;2023-02-28T07:37:59;16.85;;;8.32;;
58898;SDS011;44680;48.342;7.856;2023-02-28T07:40:24;16.15;;;8.55;;
58898;SDS011;44680;48.342;7.856;2023-02-28T07:42:50;17.33;;;8.82;;
58898;SDS011;44680;48.342;7.856;2023-02-28T07:45:15;19.20;;;8.90;;
58898;SDS011;44680;48.342;7.856;2023-02-28T07:47:42;15.68;;;8.65;;
58898;SDS011;44680;48.342;7.856;2023-02-28T07:50:08;15.98;;;8.63;;
58898;SDS011;44680;48.342;7.856;2023-02-28T07:52:36;14.25;;;8.15;;
58898;SDS011;44680;48.342;7.856;2023-02-28T07:55:02;19.67;;;9.25;;
58898;SDS011;44680;48.342;7.856;2023-02-28T07:57:28;14.43;;;7.82;;
58898;SDS011;44680;48.342;7.856;2023-02-28T07:59:53;16.45;;;8.75;;
58898;SDS011;44680;48.342;7.856;2023-02-28T08:02:18;21.00;;;10.65;;
58898;SDS011;44680;48.342;7.856;2023-02-28T08:04:44;14.73;;;8.80;;
58898;SDS011;44680;48.342;7.856;2023-02-28T08:07:10;15.30;;;8.80;;
58898;SDS011;44680;48.342;7.856;2023-02-28T08:09:38;20.63;;;9.95;;
58898;SDS011;44680;48.342;7.856;2023-02-28T08:12:06;17.65;;;8.57;;
58898;SDS011;44680;48.342;7.856;2023-02-28T08:14:32;17.05;;;8.18;;
58898;SDS011;44680;48.342;7.856;2023-02-28T08:16:58;17.00;;;9.30;;
58898;SDS011;44680;48.342;7.856;2023-02-28T08:19:23;16.70;;;8.85;;
58898;SDS011;44680;48.342;7.856;2023-02-28T08:21:48;18.73;;;9.82;;
58898;SDS011;44680;48.342;7.856;2023-02-28T08:24:14;19.60;;;10.02;;
58898;SDS011;44680;48.342;7.856;2023-02-28T08:26:39;19.85;;;9.90;;
58898;SDS011;44680;48.342;7.856;2023-02-28T08:29:04;17.33;;;9.30;;
58898;SDS011;44680;48.342;7.856;2023-02-28T08:31:30;17.75;;;8.93;;
58898;SDS011;44680;48.342;7.856;2023-02-28T08:33:55;15.93;;;9.95;;
58898;SDS011;44680;48.342;7.856;2023-02-28T08:36:23;18.95;;;9.65;;
58898;SDS011;44680;48.342;7.856;2023-02-28T08:38:49;18.75;;;9.90;;
58898;SDS011;44680;48.342;7.856;2023-02-28T08:41:14;18.52;;;9.27;;
58898;SDS011;44680;48.342;7.856;2023-02-28T08:43:40;19.45;;;10.23;;
58898;SDS011;44680;48.342;7.856;2023-02-28T08:46:06;22.52;;;12.48;;
58898;SDS011;44680;48.342;7.856;2023-02-28T08:48:32;20.40;;;11.57;;
58898;SDS011;44680;48.342;7.856;2023-02-28T08:50:59;22.90;;;11.85;;
58898;SDS011;44680;48.342;7.856;2023-02-28T08:53:26;27.95;;;15.23;;
58898;SDS011;44680;48.342;7.856;2023-02-28T08:55:58;21.42;;;12.00;;
58898;SDS011;44680;48.342;7.856;2023-02-28T08:58:24;23.58;;;14.02;;
58898;SDS011;44680;48.342;7.856;2023-02-28T09:00:50;21.52;;;10.85;;
58898;SDS011;44680;48.342;7.856;2023-02-28T09:03:16;19.95;;;11.50;;
58898;SDS011;44680;48.342;7.856;2023-02-28T09:05:42;24.38;;;14.00;;
58898;SDS011;44680;48.342;7.856;2023-02-28T09:08:23;19.40;;;10.80;;
58898;SDS011;44680;48.342;7.856;2023-02-28T09:10:49;22.48;;;11.07;;
58898;SDS011;44680;48.342;7.856;2023-02-28T09:13:15;20.15;;;10.40;;
58898;SDS011;44680;48.342;7.856;2023-02-28T09:15:40;22.05;;;11.43;;
58898;SDS011;44680;48.342;7.856;2023-02-28T09:18:05;21.05;;;10.35;;
58898;SDS011;44680;48.342;7.856;2023-02-28T09:20:31;26.30;;;13.88;;
58898;SDS011;44680;48.342;7.856;2023-02-28T09:22:56;22.98;;;11.75;;
58898;SDS011;44680;48.342;7.856;2023-02-28T09:25:21;32.08;;;14.90;;
58898;SDS011;44680;48.342;7.856;2023-02-28T09:27:47;25.23;;;13.18;;
58898;SDS011;44680;48.342;7.856;2023-02-28T09:30:12;19.63;;;10.45;;
58898;SDS011;44680;48.342;7.856;2023-02-28T09:32:38;23.65;;;12.55;;
58898;SDS011;44680;48.342;7.856;2023-02-28T09:35:03;22.73;;;11.45;;
58898;SDS011;44680;48.342;7.856;2023-02-28T09:37:29;20.52;;;10.75;;
58898;SDS011;44680;48.342;7.856;2023-02-28T09:39:56;20.42;;;10.70;;
58898;SDS011;44680;48.342;7.856;2023-02-28T09:42:22;20.15;;;9.85;;
58898;SDS011;44680;48.342;7.856;2023-02-28T09:44:51;20.63;;;10.38;;
58898;SDS011;44680;48.342;7.856;2023-02-28T09:52:52;22.05;;;10.57;;
58898;SDS011;44680;48.342;7.856;2023-02-28T09:55:20;19.48;;;9.98;;
58898;SDS011;44680;48.342;7.856;2023-02-28T09:57:50;23.65;;;10.85;;
58898;SDS011;44680;48.342;7.856;2023-02-28T10:00:18;20.40;;;10.35;;
58898;SDS011;44680;48.342;7.856;2023-02-28T10:02:50;22.42;;;10.50;;
58898;SDS011;44680;48.342;7.856;2023-02-28T10:05:41;21.25;;;10.63;;
58898;SDS011;44680;48.342;7.856;2023-02-28T10:08:19;20.27;;;9.65;;
58898;SDS011;44680;48.342;7.856;2023-02-28T10:10:51;19.02;;;9.88;;
58898;SDS011;44680;48.342;7.856;2023-02-28T10:13:27;18.75;;;10.18;;
58898;SDS011;44680;48.342;7.856;2023-02-28T10:16:01;20.48;;;10.15;;
58898;SDS011;44680;48.342;7.856;2023-02-28T10:18:30;22.50;;;10.13;;
58898;SDS011;44680;48.342;7.856;2023-02-28T10:21:03;20.40;;;10.20;;
58898;SDS011;44680;48.342;7.856;2023-02-28T10:23:31;17.70;;;9.20;;
58898;SDS011;44680;48.342;7.856;2023-02-28T10:26:12;19.30;;;10.13;;
58898;SDS011;44680;48.342;7.856;2023-02-28T10:28:40;20.85;;;10.05;;
58898;SDS011;44680;48.342;7.856;2023-02-28T10:31:08;16.95;;;9.23;;
58898;SDS011;44680;48.342;7.856;2023-02-28T10:33:36;22.13;;;10.38;;
58898;SDS011;44680;48.342;7.856;2023-02-28T10:36:03;19.52;;;9.63;;
58898;SDS011;44680;48.342;7.856;2023-02-28T10:38:32;19.25;;;10.18;;
58898;SDS011;44680;48.342;7.856;2023-02-28T10:41:04;18.38;;;9.80;;
58898;SDS011;44680;48.342;7.856;2023-02-28T10:43:34;21.60;;;9.80;;
58898;SDS011;44680;48.342;7.856;2023-02-28T10:46:09;21.05;;;10.32;;
58898;SDS011;44680;48.342;7.856;2023-02-28T10:48:39;18.08;;;9.82;;
58898;SDS011;44680;48.342;7.856;2023-02-28T10:51:15;19.85;;;10.05;;
58898;SDS011;44680;48.342;7.856;2023-02-28T10:53:54;18.83;;;10.55;;
58898;SDS011;44680;48.342;7.856;2023-02-28T10:56:21;19.63;;;10.02;;
58898;SDS011;44680;48.342;7.856;2023-02-28T10:58:57;18.45;;;9.63;;
58898;SDS011;44680;48.342;7.856;2023-02-28T11:01:44;18.50;;;9.77;;
58898;SDS011;44680;48.342;7.856;2023-02-28T11:06:46;17.30;;;9.70;;
58898;SDS011;44680;48.342;7.856;2023-02-28T11:09:22;20.38;;;10.18;;
58898;SDS011;44680;48.342;7.856;2023-02-28T11:11:52;21.85;;;10.40;;
58898;SDS011;44680;48.342;7.856;2023-02-28T11:14:22;20.92;;;10.20;;
58898;SDS011;44680;48.342;7.856;2023-02-28T11:16:55;20.58;;;10.57;;
58898;SDS011;44680;48.342;7.856;2023-02-28T11:19:28;24.90;;;10.40;;
58898;SDS011;44680;48.342;7.856;2023-02-28T11:22:03;21.23;;;10.55;;
58898;SDS011;44680;48.342;7.856;2023-02-28T11:24:33;19.58;;;10.18;;
58898;SDS011;44680;48.342;7.856;2023-02-28T11:27:01;22.35;;;10.63;;
58898;SDS011;44680;48.342;7.856;2023-02-28T11:29:28;20.02;;;10.65;;
58898;SDS011;44680;48.342;7.856;2023-02-28T11:34:59;22.17;;;10.43;;
58898;SDS011;44680;48.342;7.856;2023-02-28T11:37:27;20.45;;;10.43;;
58898;SDS011;44680;48.342;7.856;2023-02-28T11:39:53;19.52;;;9.98;;
58898;SDS011;44680;48.342;7.856;2023-02-28T11:47:48;22.20;;;10.85;;
58898;SDS011;44680;48.342;7.856;2023-02-28T11:50:21;20.75;;;11.07;;
58898;SDS011;44680;48.342;7.856;2023-02-28T12:06:28;21.13;;;11.73;;
58898;SDS011;44680;48.342;7.856;2023-02-28T12:14:22;24.85;;;13.20;;
58898;SDS011;44680;48.342;7.856;2023-02-28T12:17:12;22.50;;;11.70;;
58898;SDS011;44680;48.342;7.856;2023-02-28T12:19:45;24.27;;;11.32;;
58898;SDS011;44680;48.342;7.856;2023-02-28T12:27:33;19.02;;;9.80;;
58898;SDS011;44680;48.342;7.856;2023-02-28T12:30:19;21.35;;;10.63;;
58898;SDS011;44680;48.342;7.856;2023-02-28T12:32:49;18.75;;;9.80;;
58898;SDS011;44680;48.342;7.856;2023-02-28T12:35:37;20.40;;;11.25;;
58898;SDS011;44680;48.342;7.856;2023-02-28T12:38:10;25.50;;;10.93;;
58898;SDS011;44680;48.342;7.856;2023-02-28T12:40:41;22.38;;;10.50;;
58898;SDS011;44680;48.342;7.856;2023-02-28T12:43:07;24.85;;;12.38;;
58898;SDS011;44680;48.342;7.856;2023-02-28T12:46:10;21.13;;;10.45;;
58898;SDS011;44680;48.342;7.856;2023-02-28T12:48:56;20.45;;;10.63;;
58898;SDS011;44680;48.342;7.856;2023-02-28T12:51:22;20.13;;;12.27;;
58898;SDS011;44680;48.342;7.856;2023-02-28T12:54:02;20.50;;;10.43;;
58898;SDS011;44680;48.342;7.856;2023-02-28T12:59:27;19.52;;;10.65;;
58898;SDS011;44680;48.342;7.856;2023-02-28T13:02:00;19.95;;;10.60;;
58898;SDS011;44680;48.342;7.856;2023-02-28T13:10:04;20.60;;;11.55;;
58898;SDS011;44680;48.342;7.856;2023-02-28T13:12:31;21.92;;;10.95;;
58898;SDS011;44680;48.342;7.856;2023-02-28T13:17:30;21.30;;;10.10;;
58898;SDS011;44680;48.342;7.856;2023-02-28T13:19:57;19.15;;;10.05;;
58898;SDS011;44680;48.342;7.856;2023-02-28T13:22:37;20.05;;;10.70;;
58898;SDS011;44680;48.342;7.856;2023-02-28T13:25:50;19.52;;;10.70;;
58898;SDS011;44680;48.342;7.856;2023-02-28T13:27:50;22.38;;;11.75;;
58898;SDS011;44680;48.342;7.856;2023-02-28T13:36:35;23.08;;;10.75;;
58898;SDS011;44680;48.342;7.856;2023-02-28T13:38:43;19.40;;;10.45;;
58898;SDS011;44680;48.342;7.856;2023-02-28T13:44:22;20.15;;;10.07;;
58898;SDS011;44680;48.342;7.856;2023-02-28T13:51:50;19.95;;;10.65;;
58898;SDS011;44680;48.342;7.856;2023-02-28T14:03:01;19.58;;;10.35;;
58898;SDS011;44680;48.342;7.856;2023-02-28T14:05:33;17.63;;;10.70;;
58898;SDS011;44680;48.342;7.856;2023-02-28T14:08:02;18.63;;;10.32;;
58898;SDS011;44680;48.342;7.856;2023-02-28T14:10:50;18.05;;;10.10;;
58898;SDS011;44680;48.342;7.856;2023-02-28T14:16:09;15.73;;;9.43;;
58898;SDS011;44680;48.342;7.856;2023-02-28T14:18:36;16.33;;;9.43;;
58898;SDS011;44680;48.342;7.856;2023-02-28T14:21:10;16.35;;;9.45;;
58898;SDS011;44680;48.342;7.856;2023-02-28T14:23:42;19.58;;;11.50;;
58898;SDS011;44680;48.342;7.856;2023-02-28T14:26:49;16.95;;;10.63;;
58898;SDS011;44680;48.342;7.856;2023-02-28T14:32:06;16.85;;;9.75;;
58898;SDS011;44680;48.342;7.856;2023-02-28T14:34:58;18.02;;;10.48;;
58898;SDS011;44680;48.342;7.856;2023-02-28T14:37:29;17.88;;;10.13;;
58898;SDS011;44680;48.342;7.856;2023-02-28T14:39:59;17.25;;;10.05;;
58898;SDS011;44680;48.342;7.856;2023-02-28T14:42:32;16.73;;;10.43;;
58898;SDS011;44680;48.342;7.856;2023-02-28T14:45:21;20.38;;;9.75;;
58898;SDS011;44680;48.342;7.856;2023-02-28T14:47:48;18.38;;;10.00;;
58898;SDS011;44680;48.342;7.856;2023-02-28T14:50:18;17.88;;;9.93;;
58898;SDS011;44680;48.342;7.856;2023-02-28T14:52:45;24.23;;;12.05;;
58898;SDS011;44680;48.342;7.856;2023-02-28T14:55:12;22.13;;;11.25;;
58898;SDS011;44680;48.342;7.856;2023-02-28T14:57:41;20.63;;;11.18;;
58898;SDS011;44680;48.342;7.856;2023-02-28T15:00:16;26.42;;;12.75;;
58898;SDS011;44680;48.342;7.856;2023-02-28T15:02:45;29.20;;;13.90;;
58898;SDS011;44680;48.342;7.856;2023-02-28T15:07:42;21.75;;;11.60;;
58898;SDS011;44680;48.342;7.856;2023-02-28T15:10:16;31.55;;;14.70;;
58898;SDS011;44680;48.342;7.856;2023-02-28T15:12:47;24.63;;;11.75;;
58898;SDS011;44680;48.342;7.856;2023-02-28T15:15:14;21.48;;;12.05;;
58898;SDS011;44680;48.342;7.856;2023-02-28T15:17:40;27.15;;;16.25;;
58898;SDS011;44680;48.342;7.856;2023-02-28T15:20:11;19.70;;;11.00;;
58898;SDS011;44680;48.342;7.856;2023-02-28T15:22:37;21.30;;;11.10;;
58898;SDS011;44680;48.342;7.856;2023-02-28T15:25:03;21.13;;;11.23;;
58898;SDS011;44680;48.342;7.856;2023-02-28T15:27:31;21.35;;;11.50;;
58898;SDS011;44680;48.342;7.856;2023-02-28T15:29:58;22.15;;;11.75;;
58898;SDS011;44680;48.342;7.856;2023-02-28T15:32:29;22.38;;;10.65;;
58898;SDS011;44680;48.342;7.856;2023-02-28T15:34:56;19.50;;;10.50;;
58898;SDS011;44680;48.342;7.856;2023-02-28T15:37:27;20.00;;;10.93;;
58898;SDS011;44680;48.342;7.856;2023-02-28T15:40:44;20.98;;;10.00;;
58898;SDS011;44680;48.342;7.856;2023-02-28T15:43:25;19.05;;;10.25;;
58898;SDS011;44680;48.342;7.856;2023-02-28T15:48:29;19.60;;;10.18;;
58898;SDS011;44680;48.342;7.856;2023-02-28T15:51:01;17.90;;;10.27;;
58898;SDS011;44680;48.342;7.856;2023-02-28T15:53:30;17.92;;;9.95;;
58898;SDS011;44680;48.342;7.856;2023-02-28T15:55:59;22.05;;;10.75;;
58898;SDS011;44680;48.342;7.856;2023-02-28T15:58:26;19.48;;;10.20;;
58898;SDS011;44680;48.342;7.856;2023-02-28T16:01:06;18.42;;;10.27;;
58898;SDS011;44680;48.342;7.856;2023-02-28T16:03:41;16.35;;;10.07;;
58898;SDS011;44680;48.342;7.856;2023-02-28T16:06:19;18.00;;;10.25;;
58898;SDS011;44680;48.342;7.856;2023-02-28T16:08:47;19.33;;;11.45;;
58898;SDS011;44680;48.342;7.856;2023-02-28T16:11:13;27.75;;;13.88;;
58898;SDS011;44680;48.342;7.856;2023-02-28T16:13:39;28.55;;;13.45;;
58898;SDS011;44680;48.342;7.856;2023-02-28T16:16:04;23.95;;;11.90;;
58898;SDS011;44680;48.342;7.856;2023-02-28T16:18:29;19.73;;;11.10;;
58898;SDS011;44680;48.342;7.856;2023-02-28T16:20:55;19.83;;;10.52;;
58898;SDS011;44680;48.342;7.856;2023-02-28T16:23:20;22.10;;;12.27;;
58898;SDS011;44680;48.342;7.856;2023-02-28T16:25:45;20.88;;;12.02;;
58898;SDS011;44680;48.342;7.856;2023-02-28T16:28:28;20.05;;;10.63;;
58898;SDS011;44680;48.342;7.856;2023-02-28T16:30:57;18.70;;;10.45;;
58898;SDS011;44680;48.342;7.856;2023-02-28T16:33:24;19.23;;;10.45;;
58898;SDS011;44680;48.342;7.856;2023-02-28T16:35:49;18.30;;;10.48;;
58898;SDS011;44680;48.342;7.856;2023-02-28T16:38:14;18.75;;;10.30;;
58898;SDS011;44680;48.342;7.856;2023-02-28T16:40:40;18.77;;;10.75;;
58898;SDS011;44680;48.342;7.856;2023-02-28T16:43:07;23.58;;;11.43;;
58898;SDS011;44680;48.342;7.856;2023-02-28T16:45:34;21.10;;;11.85;;
58898;SDS011;44680;48.342;7.856;2023-02-28T16:48:00;26.45;;;13.77;;